sensor_id;sensor_type;location;lat;lon;timestamp;P1;durP1;ratioP1;P2;durP2;ratioP2
25481;SDS011;13395;50.752;4.268;2023-09-12T03:47:48;39.65;;;24.65;;
25481;SDS011;13395;50.752;4.268;2023-09-12T03:50:14;39.25;;;25.50;;
25481;SDS011;13395;50.752;4.268;2023-09-12T03:52:40;37.10;;;24.48;;
25481;SDS011;13395;50.752;4.268;2023-09-12T03:55:05;42.33;;;26.27;;
25481;SDS011;13395;50.752;4.268;2023-09-12T04:49:28;63.30;;;23.48;;
25481;SDS011;13395;50.752;4.268;2023-09-12T04:51:54;51.85;;;23.58;;
25481;SDS011;13395;50.752;4.268;2023-09-12T04:54:20;46.17;;;25.08;;
25481;SDS011;13395;50.752;4.268;2023-09-12T04:56:45;50.95;;;23.63;;
25481;SDS011;13395;50.752;4.268;2023-09-12T04:59:12;49.35;;;25.02;;
25481;SDS011;13395;50.752;4.268;2023-09-12T05:57:49;45.13;;;24.58;;
25481;SDS011;13395;50.752;4.268;2023-09-12T06:02:54;49.97;;;25.50;;
25481;SDS011;13395;50.752;4.268;2023-09-12T06:05:20;48.60;;;25.88;;
25481;SDS011;13395;50.752;4.268;2023-09-12T06:07:45;49.75;;;25.45;;
25481;SDS011;13395;50.752;4.268;2023-09-12T06:10:12;42.38;;;25.20;;
25481;SDS011;13395;50.752;4.268;2023-09-12T06:12:37;41.05;;;23.50;;
25481;SDS011;13395;50.752;4.268;2023-09-12T06:15:03;44.47;;;23.95;;
25481;SDS011;13395;50.752;4.268;2023-09-12T06:17:29;37.53;;;23.42;;
25481;SDS011;13395;50.752;4.268;2023-09-12T06:19:55;41.45;;;25.60;;
25481;SDS011;13395;50.752;4.268;2023-09-12T06:22:21;57.40;;;30.20;;
25481;SDS011;13395;50.752;4.268;2023-09-12T06:24:47;50.50;;;27.23;;
25481;SDS011;13395;50.752;4.268;2023-09-12T06:27:14;47.45;;;28.33;;
25481;SDS011;13395;50.752;4.268;2023-09-12T06:29:44;46.72;;;27.55;;
25481;SDS011;13395;50.752;4.268;2023-09-12T06:32:10;48.25;;;29.13;;
25481;SDS011;13395;50.752;4.268;2023-09-12T06:34:36;40.33;;;26.60;;
25481;SDS011;13395;50.752;4.268;2023-09-12T06:37:01;42.80;;;26.42;;
25481;SDS011;13395;50.752;4.268;2023-09-12T06:39:27;37.90;;;24.77;;
25481;SDS011;13395;50.752;4.268;2023-09-12T06:49:39;41.83;;;24.10;;
25481;SDS011;13395;50.752;4.268;2023-09-12T06:52:05;31.05;;;20.90;;
25481;SDS011;13395;50.752;4.268;2023-09-12T06:54:32;43.67;;;22.48;;
25481;SDS011;13395;50.752;4.268;2023-09-12T06:56:57;36.20;;;21.63;;
25481;SDS011;13395;50.752;4.268;2023-09-12T06:59:23;36.13;;;23.00;;
25481;SDS011;13395;50.752;4.268;2023-09-12T07:01:49;35.22;;;22.50;;
25481;SDS011;13395;50.752;4.268;2023-09-12T07:04:14;32.80;;;23.13;;
25481;SDS011;13395;50.752;4.268;2023-09-12T07:06:40;35.17;;;22.00;;
25481;SDS011;13395;50.752;4.268;2023-09-12T07:09:07;32.17;;;21.30;;
25481;SDS011;13395;50.752;4.268;2023-09-12T07:11:33;33.65;;;22.23;;
25481;SDS011;13395;50.752;4.268;2023-09-12T07:14:00;36.63;;;23.55;;
25481;SDS011;13395;50.752;4.268;2023-09-12T07:16:25;29.58;;;21.67;;
25481;SDS011;13395;50.752;4.268;2023-09-12T07:18:51;34.85;;;22.63;;
25481;SDS011;13395;50.752;4.268;2023-09-12T07:21:17;32.45;;;21.63;;
25481;SDS011;13395;50.752;4.268;2023-09-12T07:23:42;29.50;;;20.83;;
25481;SDS011;13395;50.752;4.268;2023-09-12T07:26:11;30.90;;;21.13;;
25481;SDS011;13395;50.752;4.268;2023-09-12T07:28:38;26.95;;;20.42;;
25481;SDS011;13395;50.752;4.268;2023-09-12T07:31:04;31.58;;;20.13;;
25481;SDS011;13395;50.752;4.268;2023-09-12T07:33:30;30.42;;;19.77;;
25481;SDS011;13395;50.752;4.268;2023-09-12T07:35:55;26.30;;;19.27;;
25481;SDS011;13395;50.752;4.268;2023-09-12T07:38:21;25.25;;;18.52;;
25481;SDS011;13395;50.752;4.268;2023-09-12T07:40:47;31.77;;;20.55;;
25481;SDS011;13395;50.752;4.268;2023-09-12T07:43:13;22.17;;;17.25;;
25481;SDS011;13395;50.752;4.268;2023-09-12T07:45:38;23.30;;;17.50;;
25481;SDS011;13395;50.752;4.268;2023-09-12T07:48:08;19.00;;;15.80;;
25481;SDS011;13395;50.752;4.268;2023-09-12T07:50:36;25.17;;;15.90;;
25481;SDS011;13395;50.752;4.268;2023-09-12T07:53:03;23.63;;;15.82;;
25481;SDS011;13395;50.752;4.268;2023-09-12T07:55:30;20.35;;;14.65;;
25481;SDS011;13395;50.752;4.268;2023-09-12T07:57:59;21.65;;;15.77;;
25481;SDS011;13395;50.752;4.268;2023-09-12T08:00:25;24.67;;;14.85;;
25481;SDS011;13395;50.752;4.268;2023-09-12T08:02:50;21.73;;;16.00;;
25481;SDS011;13395;50.752;4.268;2023-09-12T08:05:16;22.13;;;14.90;;
25481;SDS011;13395;50.752;4.268;2023-09-12T08:07:41;17.42;;;15.45;;
25481;SDS011;13395;50.752;4.268;2023-09-12T08:10:07;19.95;;;15.45;;
25481;SDS011;13395;50.752;4.268;2023-09-12T08:12:33;17.33;;;15.40;;
25481;SDS011;13395;50.752;4.268;2023-09-12T08:15:00;18.05;;;15.52;;
25481;SDS011;13395;50.752;4.268;2023-09-12T08:17:25;18.98;;;16.00;;
25481;SDS011;13395;50.752;4.268;2023-09-12T08:19:51;17.60;;;15.73;;
25481;SDS011;13395;50.752;4.268;2023-09-12T08:22:17;22.45;;;16.15;;
25481;SDS011;13395;50.752;4.268;2023-09-12T08:24:43;18.92;;;15.02;;
25481;SDS011;13395;50.752;4.268;2023-09-12T08:27:09;23.95;;;17.33;;
25481;SDS011;13395;50.752;4.268;2023-09-12T08:29:34;21.77;;;16.77;;
25481;SDS011;13395;50.752;4.268;2023-09-12T08:32:00;20.73;;;16.15;;
25481;SDS011;13395;50.752;4.268;2023-09-12T08:34:26;19.05;;;15.73;;
25481;SDS011;13395;50.752;4.268;2023-09-12T08:36:52;19.42;;;16.52;;
25481;SDS011;13395;50.752;4.268;2023-09-12T08:39:22;22.60;;;16.40;;
25481;SDS011;13395;50.752;4.268;2023-09-12T08:41:50;26.47;;;16.80;;
25481;SDS011;13395;50.752;4.268;2023-09-12T08:44:17;28.50;;;18.50;;
25481;SDS011;13395;50.752;4.268;2023-09-12T08:46:44;20.55;;;17.73;;
25481;SDS011;13395;50.752;4.268;2023-09-12T08:49:10;26.58;;;17.25;;
25481;SDS011;13395;50.752;4.268;2023-09-12T08:51:39;22.95;;;17.08;;
25481;SDS011;13395;50.752;4.268;2023-09-12T08:54:08;23.98;;;16.95;;
25481;SDS011;13395;50.752;4.268;2023-09-12T08:56:35;19.15;;;15.73;;
25481;SDS011;13395;50.752;4.268;2023-09-12T08:59:03;18.40;;;16.17;;
25481;SDS011;13395;50.752;4.268;2023-09-12T09:01:32;23.45;;;17.33;;
25481;SDS011;13395;50.752;4.268;2023-09-12T09:04:01;23.52;;;16.73;;
25481;SDS011;13395;50.752;4.268;2023-09-12T09:06:31;26.58;;;19.40;;
25481;SDS011;13395;50.752;4.268;2023-09-12T09:09:00;24.42;;;19.05;;
25481;SDS011;13395;50.752;4.268;2023-09-12T09:11:29;28.80;;;18.95;;
25481;SDS011;13395;50.752;4.268;2023-09-12T09:13:55;27.30;;;18.40;;
25481;SDS011;13395;50.752;4.268;2023-09-12T09:16:21;21.98;;;17.85;;
25481;SDS011;13395;50.752;4.268;2023-09-12T09:19:01;27.90;;;18.50;;
25481;SDS011;13395;50.752;4.268;2023-09-12T09:21:30;24.98;;;20.17;;
25481;SDS011;13395;50.752;4.268;2023-09-12T09:24:07;28.35;;;20.33;;
25481;SDS011;13395;50.752;4.268;2023-09-12T09:26:41;23.45;;;19.35;;
25481;SDS011;13395;50.752;4.268;2023-09-12T09:29:09;24.85;;;18.92;;
25481;SDS011;13395;50.752;4.268;2023-09-12T09:31:35;21.17;;;18.38;;
25481;SDS011;13395;50.752;4.268;2023-09-12T09:34:10;20.67;;;17.30;;
25481;SDS011;13395;50.752;4.268;2023-09-12T09:36:43;20.52;;;17.13;;
25481;SDS011;13395;50.752;4.268;2023-09-12T09:39:13;20.88;;;16.70;;
25481;SDS011;13395;50.752;4.268;2023-09-12T09:41:39;17.40;;;15.60;;
25481;SDS011;13395;50.752;4.268;2023-09-12T09:44:06;20.33;;;15.57;;
25481;SDS011;13395;50.752;4.268;2023-09-12T09:46:32;20.08;;;15.52;;
25481;SDS011;13395;50.752;4.268;2023-09-12T09:48:58;19.67;;;16.42;;
25481;SDS011;13395;50.752;4.268;2023-09-12T09:51:24;19.70;;;15.65;;
25481;SDS011;13395;50.752;4.268;2023-09-12T09:53:51;21.63;;;16.80;;
25481;SDS011;13395;50.752;4.268;2023-09-12T09:56:17;22.55;;;16.33;;
25481;SDS011;13395;50.752;4.268;2023-09-12T09:58:46;19.33;;;15.50;;
25481;SDS011;13395;50.752;4.268;2023-09-12T10:01:17;21.08;;;16.67;;
25481;SDS011;13395;50.752;4.268;2023-09-12T10:03:46;17.13;;;13.02;;
25481;SDS011;13395;50.752;4.268;2023-09-12T10:06:13;17.33;;;15.00;;
25481;SDS011;13395;50.752;4.268;2023-09-12T10:08:43;19.83;;;13.57;;
25481;SDS011;13395;50.752;4.268;2023-09-12T10:11:10;20.10;;;14.55;;
25481;SDS011;13395;50.752;4.268;2023-09-12T10:13:39;15.80;;;13.88;;
25481;SDS011;13395;50.752;4.268;2023-09-12T10:16:10;17.20;;;14.13;;
25481;SDS011;13395;50.752;4.268;2023-09-12T10:18:42;15.50;;;13.32;;
25481;SDS011;13395;50.752;4.268;2023-09-12T10:21:15;13.07;;;10.18;;
25481;SDS011;13395;50.752;4.268;2023-09-12T10:23:45;11.95;;;8.45;;
25481;SDS011;13395;50.752;4.268;2023-09-12T10:26:12;11.05;;;9.88;;
25481;SDS011;13395;50.752;4.268;2023-09-12T10:28:40;12.45;;;9.13;;
25481;SDS011;13395;50.752;4.268;2023-09-12T10:31:07;16.98;;;10.82;;
25481;SDS011;13395;50.752;4.268;2023-09-12T10:33:35;13.98;;;10.38;;
25481;SDS011;13395;50.752;4.268;2023-09-12T10:36:02;10.82;;;7.47;;
25481;SDS011;13395;50.752;4.268;2023-09-12T10:38:29;9.15;;;7.85;;
25481;SDS011;13395;50.752;4.268;2023-09-12T10:40:58;10.73;;;8.98;;
25481;SDS011;13395;50.752;4.268;2023-09-12T10:43:26;10.40;;;9.27;;
25481;SDS011;13395;50.752;4.268;2023-09-12T10:45:52;14.50;;;10.35;;
25481;SDS011;13395;50.752;4.268;2023-09-12T10:48:18;14.15;;;9.63;;
25481;SDS011;13395;50.752;4.268;2023-09-12T10:50:44;11.10;;;8.50;;
25481;SDS011;13395;50.752;4.268;2023-09-12T10:53:11;8.35;;;7.00;;
25481;SDS011;13395;50.752;4.268;2023-09-12T10:55:37;8.95;;;8.05;;
25481;SDS011;13395;50.752;4.268;2023-09-12T10:58:09;10.48;;;8.07;;
25481;SDS011;13395;50.752;4.268;2023-09-12T11:00:36;13.80;;;8.15;;
25481;SDS011;13395;50.752;4.268;2023-09-12T11:05:51;12.15;;;7.53;;
25481;SDS011;13395;50.752;4.268;2023-09-12T11:08:18;12.07;;;9.05;;
25481;SDS011;13395;50.752;4.268;2023-09-12T11:10:44;10.38;;;8.45;;
25481;SDS011;13395;50.752;4.268;2023-09-12T11:13:33;11.57;;;6.88;;
25481;SDS011;13395;50.752;4.268;2023-09-12T11:16:11;10.00;;;6.80;;
25481;SDS011;13395;50.752;4.268;2023-09-12T11:21:51;15.63;;;6.25;;
25481;SDS011;13395;50.752;4.268;2023-09-12T11:24:18;7.18;;;5.55;;
25481;SDS011;13395;50.752;4.268;2023-09-12T11:26:55;6.00;;;4.97;;
25481;SDS011;13395;50.752;4.268;2023-09-12T11:29:20;9.00;;;5.75;;
25481;SDS011;13395;50.752;4.268;2023-09-12T11:31:56;7.03;;;5.18;;
25481;SDS011;13395;50.752;4.268;2023-09-12T11:34:29;6.25;;;5.45;;
25481;SDS011;13395;50.752;4.268;2023-09-12T11:37:00;6.38;;;4.00;;
25481;SDS011;13395;50.752;4.268;2023-09-12T11:39:31;7.07;;;5.47;;
25481;SDS011;13395;50.752;4.268;2023-09-12T11:41:59;7.72;;;4.85;;
25481;SDS011;13395;50.752;4.268;2023-09-12T11:44:26;6.57;;;4.93;;
25481;SDS011;13395;50.752;4.268;2023-09-12T11:46:52;6.07;;;4.90;;
25481;SDS011;13395;50.752;4.268;2023-09-12T11:49:18;8.98;;;4.93;;
25481;SDS011;13395;50.752;4.268;2023-09-12T11:51:51;5.22;;;4.30;;
25481;SDS011;13395;50.752;4.268;2023-09-12T11:54:25;5.05;;;4.15;;
25481;SDS011;13395;50.752;4.268;2023-09-12T11:56:52;4.80;;;3.60;;
25481;SDS011;13395;50.752;4.268;2023-09-12T12:01:54;6.75;;;4.30;;
25481;SDS011;13395;50.752;4.268;2023-09-12T12:04:21;4.80;;;4.10;;
25481;SDS011;13395;50.752;4.268;2023-09-12T12:06:47;7.68;;;4.13;;
25481;SDS011;13395;50.752;4.268;2023-09-12T12:09:17;5.68;;;4.68;;
25481;SDS011;13395;50.752;4.268;2023-09-12T12:11:44;5.35;;;4.88;;
25481;SDS011;13395;50.752;4.268;2023-09-12T12:14:11;6.25;;;4.22;;
25481;SDS011;13395;50.752;4.268;2023-09-12T12:16:41;5.88;;;4.38;;
25481;SDS011;13395;50.752;4.268;2023-09-12T12:19:08;5.32;;;4.35;;
25481;SDS011;13395;50.752;4.268;2023-09-12T12:21:38;8.88;;;4.72;;
25481;SDS011;13395;50.752;4.268;2023-09-12T12:24:05;4.38;;;3.90;;
25481;SDS011;13395;50.752;4.268;2023-09-12T12:26:33;5.30;;;4.18;;
25481;SDS011;13395;50.752;4.268;2023-09-12T12:29:03;8.60;;;4.63;;
25481;SDS011;13395;50.752;4.268;2023-09-12T12:31:29;8.73;;;5.40;;
25481;SDS011;13395;50.752;4.268;2023-09-12T12:33:56;9.85;;;5.03;;
25481;SDS011;13395;50.752;4.268;2023-09-12T12:36:22;12.30;;;5.07;;
25481;SDS011;13395;50.752;4.268;2023-09-12T12:38:49;10.68;;;5.78;;
25481;SDS011;13395;50.752;4.268;2023-09-12T12:41:22;11.90;;;5.45;;
25481;SDS011;13395;50.752;4.268;2023-09-12T12:43:50;9.43;;;5.38;;
25481;SDS011;13395;50.752;4.268;2023-09-12T12:46:17;10.38;;;4.85;;
25481;SDS011;13395;50.752;4.268;2023-09-12T12:48:44;16.35;;;5.18;;
25481;SDS011;13395;50.752;4.268;2023-09-12T12:51:20;11.27;;;5.32;;
25481;SDS011;13395;50.752;4.268;2023-09-12T12:53:49;8.63;;;5.28;;
25481;SDS011;13395;50.752;4.268;2023-09-12T12:56:19;9.35;;;5.18;;
25481;SDS011;13395;50.752;4.268;2023-09-12T12:58:53;8.93;;;5.13;;
25481;SDS011;13395;50.752;4.268;2023-09-12T13:01:20;9.20;;;4.80;;
25481;SDS011;13395;50.752;4.268;2023-09-12T13:03:46;13.63;;;4.57;;
25481;SDS011;13395;50.752;4.268;2023-09-12T13:06:14;6.78;;;4.28;;
25481;SDS011;13395;50.752;4.268;2023-09-12T13:08:42;10.15;;;5.00;;
25481;SDS011;13395;50.752;4.268;2023-09-12T13:11:12;9.15;;;4.53;;
25481;SDS011;13395;50.752;4.268;2023-09-12T13:13:38;9.25;;;5.00;;
25481;SDS011;13395;50.752;4.268;2023-09-12T13:16:05;8.63;;;4.63;;
25481;SDS011;13395;50.752;4.268;2023-09-12T13:18:34;7.30;;;4.95;;
25481;SDS011;13395;50.752;4.268;2023-09-12T13:21:04;12.13;;;5.47;;
25481;SDS011;13395;50.752;4.268;2023-09-12T13:23:30;9.50;;;5.50;;
25481;SDS011;13395;50.752;4.268;2023-09-12T13:25:56;11.50;;;6.43;;
25481;SDS011;13395;50.752;4.268;2023-09-12T13:28:22;11.23;;;6.53;;
25481;SDS011;13395;50.752;4.268;2023-09-12T13:30:51;9.30;;;5.88;;
25481;SDS011;13395;50.752;4.268;2023-09-12T13:33:17;7.85;;;5.65;;
25481;SDS011;13395;50.752;4.268;2023-09-12T13:35:43;22.88;;;6.50;;
25481;SDS011;13395;50.752;4.268;2023-09-12T13:38:09;13.23;;;5.57;;
25481;SDS011;13395;50.752;4.268;2023-09-12T13:40:36;10.43;;;5.30;;
25481;SDS011;13395;50.752;4.268;2023-09-12T13:43:03;8.68;;;5.65;;
25481;SDS011;13395;50.752;4.268;2023-09-12T13:45:32;9.02;;;5.40;;
25481;SDS011;13395;50.752;4.268;2023-09-12T13:47:58;13.35;;;5.55;;
25481;SDS011;13395;50.752;4.268;2023-09-12T13:50:25;9.35;;;5.90;;
25481;SDS011;13395;50.752;4.268;2023-09-12T13:52:53;8.98;;;5.93;;
25481;SDS011;13395;50.752;4.268;2023-09-12T13:55:22;8.30;;;5.70;;
25481;SDS011;13395;50.752;4.268;2023-09-12T13:57:48;7.20;;;5.85;;
25481;SDS011;13395;50.752;4.268;2023-09-12T14:00:14;7.13;;;6.35;;
25481;SDS011;13395;50.752;4.268;2023-09-12T14:02:40;9.48;;;6.43;;
25481;SDS011;13395;50.752;4.268;2023-09-12T14:05:05;8.88;;;6.85;;
25481;SDS011;13395;50.752;4.268;2023-09-12T14:07:31;9.40;;;7.00;;
25481;SDS011;13395;50.752;4.268;2023-09-12T14:09:57;7.82;;;6.53;;
25481;SDS011;13395;50.752;4.268;2023-09-12T14:12:23;8.57;;;6.80;;
25481;SDS011;13395;50.752;4.268;2023-09-12T14:14:49;8.25;;;7.00;;
25481;SDS011;13395;50.752;4.268;2023-09-12T14:17:14;11.65;;;8.07;;
25481;SDS011;13395;50.752;4.268;2023-09-12T14:19:40;12.25;;;8.73;;
25481;SDS011;13395;50.752;4.268;2023-09-12T14:22:06;15.77;;;10.18;;
25481;SDS011;13395;50.752;4.268;2023-09-12T14:24:31;21.52;;;10.52;;
25481;SDS011;13395;50.752;4.268;2023-09-12T14:26:57;17.75;;;10.80;;
25481;SDS011;13395;50.752;4.268;2023-09-12T14:29:22;23.45;;;10.45;;
25481;SDS011;13395;50.752;4.268;2023-09-12T14:31:51;14.88;;;10.52;;
25481;SDS011;13395;50.752;4.268;2023-09-12T14:34:22;16.15;;;10.48;;
25481;SDS011;13395;50.752;4.268;2023-09-12T14:36:56;19.80;;;11.02;;
25481;SDS011;13395;50.752;4.268;2023-09-12T14:39:23;12.05;;;9.65;;
25481;SDS011;13395;50.752;4.268;2023-09-12T14:41:49;19.67;;;10.38;;
25481;SDS011;13395;50.752;4.268;2023-09-12T14:44:23;29.88;;;11.35;;
25481;SDS011;13395;50.752;4.268;2023-09-12T14:46:49;18.10;;;11.80;;
25481;SDS011;13395;50.752;4.268;2023-09-12T14:49:15;14.07;;;11.38;;
25481;SDS011;13395;50.752;4.268;2023-09-12T14:51:41;27.27;;;12.48;;
25481;SDS011;13395;50.752;4.268;2023-09-12T14:54:08;26.48;;;11.80;;
25481;SDS011;13395;50.752;4.268;2023-09-12T14:56:35;13.90;;;12.13;;
25481;SDS011;13395;50.752;4.268;2023-09-12T14:59:01;18.15;;;11.95;;
25481;SDS011;13395;50.752;4.268;2023-09-12T15:01:28;22.10;;;11.40;;
25481;SDS011;13395;50.752;4.268;2023-09-12T15:03:54;14.07;;;11.02;;
25481;SDS011;13395;50.752;4.268;2023-09-12T15:06:20;17.45;;;11.05;;
25481;SDS011;13395;50.752;4.268;2023-09-12T15:08:45;15.38;;;11.45;;
25481;SDS011;13395;50.752;4.268;2023-09-12T15:11:11;16.50;;;11.90;;
25481;SDS011;13395;50.752;4.268;2023-09-12T15:13:37;15.65;;;11.73;;
25481;SDS011;13395;50.752;4.268;2023-09-12T15:16:03;12.90;;;11.52;;
25481;SDS011;13395;50.752;4.268;2023-09-12T15:18:29;14.45;;;11.50;;
25481;SDS011;13395;50.752;4.268;2023-09-12T15:20:55;17.80;;;12.15;;
25481;SDS011;13395;50.752;4.268;2023-09-12T15:23:21;16.17;;;11.38;;
25481;SDS011;13395;50.752;4.268;2023-09-12T15:25:48;13.07;;;11.77;;
25481;SDS011;13395;50.752;4.268;2023-09-12T15:28:14;15.77;;;11.98;;
25481;SDS011;13395;50.752;4.268;2023-09-12T15:30:39;15.27;;;12.02;;
25481;SDS011;13395;50.752;4.268;2023-09-12T15:33:05;14.88;;;11.23;;
25481;SDS011;13395;50.752;4.268;2023-09-12T15:35:31;12.10;;;10.90;;
25481;SDS011;13395;50.752;4.268;2023-09-12T15:37:56;16.88;;;12.23;;
25481;SDS011;13395;50.752;4.268;2023-09-12T15:40:22;15.10;;;12.10;;
25481;SDS011;13395;50.752;4.268;2023-09-12T15:42:47;14.95;;;12.32;;
25481;SDS011;13395;50.752;4.268;2023-09-12T15:45:13;28.05;;;13.18;;
25481;SDS011;13395;50.752;4.268;2023-09-12T15:47:40;16.15;;;12.93;;
25481;SDS011;13395;50.752;4.268;2023-09-12T15:50:06;21.45;;;16.08;;
25481;SDS011;13395;50.752;4.268;2023-09-12T15:52:32;23.77;;;14.10;;
25481;SDS011;13395;50.752;4.268;2023-09-12T15:55:02;18.70;;;15.73;;
25481;SDS011;13395;50.752;4.268;2023-09-12T15:57:29;28.35;;;18.27;;
25481;SDS011;13395;50.752;4.268;2023-09-12T15:59:54;24.52;;;18.25;;
25481;SDS011;13395;50.752;4.268;2023-09-12T16:02:20;24.33;;;19.20;;
25481;SDS011;13395;50.752;4.268;2023-09-12T16:04:46;26.30;;;19.15;;
25481;SDS011;13395;50.752;4.268;2023-09-12T16:07:11;28.70;;;19.25;;
25481;SDS011;13395;50.752;4.268;2023-09-12T16:09:37;27.38;;;18.30;;
25481;SDS011;13395;50.752;4.268;2023-09-12T16:12:02;24.48;;;18.33;;
25481;SDS011;13395;50.752;4.268;2023-09-12T16:14:28;32.50;;;18.60;;
25481;SDS011;13395;50.752;4.268;2023-09-12T16:16:54;22.35;;;17.80;;
25481;SDS011;13395;50.752;4.268;2023-09-12T16:19:22;24.85;;;18.17;;
25481;SDS011;13395;50.752;4.268;2023-09-12T16:21:50;27.25;;;18.25;;
25481;SDS011;13395;50.752;4.268;2023-09-12T16:24:16;24.73;;;17.42;;
25481;SDS011;13395;50.752;4.268;2023-09-12T16:26:41;26.20;;;18.88;;
25481;SDS011;13395;50.752;4.268;2023-09-12T16:29:07;21.83;;;16.30;;
25481;SDS011;13395;50.752;4.268;2023-09-12T16:31:33;15.52;;;13.23;;
25481;SDS011;13395;50.752;4.268;2023-09-12T16:33:58;17.10;;;13.55;;
25481;SDS011;13395;50.752;4.268;2023-09-12T16:36:24;18.98;;;13.27;;
25481;SDS011;13395;50.752;4.268;2023-09-12T16:38:50;16.02;;;11.95;;
25481;SDS011;13395;50.752;4.268;2023-09-12T16:41:15;11.65;;;10.45;;
25481;SDS011;13395;50.752;4.268;2023-09-12T16:43:41;12.40;;;10.85;;
25481;SDS011;13395;50.752;4.268;2023-09-12T16:46:06;16.77;;;10.77;;
25481;SDS011;13395;50.752;4.268;2023-09-12T16:48:32;12.30;;;9.35;;
25481;SDS011;13395;50.752;4.268;2023-09-12T16:50:59;11.63;;;10.02;;
25481;SDS011;13395;50.752;4.268;2023-09-12T16:53:25;12.20;;;9.52;;
25481;SDS011;13395;50.752;4.268;2023-09-12T16:55:51;15.07;;;10.45;;
25481;SDS011;13395;50.752;4.268;2023-09-12T16:58:17;12.38;;;9.75;;
25481;SDS011;13395;50.752;4.268;2023-09-12T17:00:42;9.93;;;8.68;;
25481;SDS011;13395;50.752;4.268;2023-09-12T17:03:08;10.85;;;8.73;;
25481;SDS011;13395;50.752;4.268;2023-09-12T17:05:33;9.90;;;8.13;;
25481;SDS011;13395;50.752;4.268;2023-09-12T17:07:59;12.82;;;9.07;;
25481;SDS011;13395;50.752;4.268;2023-09-12T17:10:25;10.90;;;8.35;;
25481;SDS011;13395;50.752;4.268;2023-09-12T17:12:50;10.88;;;8.68;;
25481;SDS011;13395;50.752;4.268;2023-09-12T17:15:16;10.48;;;8.50;;
25481;SDS011;13395;50.752;4.268;2023-09-12T17:17:43;13.30;;;9.15;;
25481;SDS011;13395;50.752;4.268;2023-09-12T17:20:10;10.52;;;8.52;;
25481;SDS011;13395;50.752;4.268;2023-09-12T17:22:36;12.63;;;8.52;;
25481;SDS011;13395;50.752;4.268;2023-09-12T17:25:02;10.63;;;8.32;;
25481;SDS011;13395;50.752;4.268;2023-09-12T17:27:28;10.35;;;8.23;;
25481;SDS011;13395;50.752;4.268;2023-09-12T17:29:54;10.32;;;8.63;;
25481;SDS011;13395;50.752;4.268;2023-09-12T17:32:19;10.73;;;9.23;;
25481;SDS011;13395;50.752;4.268;2023-09-12T17:34:45;10.65;;;8.85;;
25481;SDS011;13395;50.752;4.268;2023-09-12T17:37:16;14.55;;;9.13;;
25481;SDS011;13395;50.752;4.268;2023-09-12T17:39:42;11.10;;;7.82;;
25481;SDS011;13395;50.752;4.268;2023-09-12T17:42:08;11.65;;;8.60;;
25481;SDS011;13395;50.752;4.268;2023-09-12T17:44:33;12.73;;;7.97;;
25481;SDS011;13395;50.752;4.268;2023-09-12T17:46:59;14.00;;;9.52;;
25481;SDS011;13395;50.752;4.268;2023-09-12T17:49:24;12.95;;;8.65;;
25481;SDS011;13395;50.752;4.268;2023-09-12T17:51:50;9.73;;;8.70;;
25481;SDS011;13395;50.752;4.268;2023-09-12T17:54:16;11.50;;;7.97;;
25481;SDS011;13395;50.752;4.268;2023-09-12T17:56:41;14.68;;;8.20;;
25481;SDS011;13395;50.752;4.268;2023-09-12T17:59:07;23.52;;;8.55;;
25481;SDS011;13395;50.752;4.268;2023-09-12T18:01:32;9.48;;;7.35;;
25481;SDS011;13395;50.752;4.268;2023-09-12T18:03:58;9.13;;;6.68;;
25481;SDS011;13395;50.752;4.268;2023-09-12T18:06:24;10.20;;;6.85;;
25481;SDS011;13395;50.752;4.268;2023-09-12T18:08:51;8.40;;;6.88;;
25481;SDS011;13395;50.752;4.268;2023-09-12T18:11:17;13.25;;;7.55;;
25481;SDS011;13395;50.752;4.268;2023-09-12T18:13:43;13.38;;;8.10;;
25481;SDS011;13395;50.752;4.268;2023-09-12T18:16:11;11.70;;;7.55;;
25481;SDS011;13395;50.752;4.268;2023-09-12T18:18:39;10.23;;;7.05;;
25481;SDS011;13395;50.752;4.268;2023-09-12T18:21:05;10.10;;;7.43;;
25481;SDS011;13395;50.752;4.268;2023-09-12T18:23:30;10.82;;;8.18;;
25481;SDS011;13395;50.752;4.268;2023-09-12T18:25:59;17.30;;;8.02;;
25481;SDS011;13395;50.752;4.268;2023-09-12T18:28:44;11.75;;;7.40;;
25481;SDS011;13395;50.752;4.268;2023-09-12T18:31:12;8.77;;;7.47;;
25481;SDS011;13395;50.752;4.268;2023-09-12T18:33:39;20.25;;;7.25;;
25481;SDS011;13395;50.752;4.268;2023-09-12T18:36:06;8.80;;;7.88;;
25481;SDS011;13395;50.752;4.268;2023-09-12T18:38:39;8.10;;;6.47;;
25481;SDS011;13395;50.752;4.268;2023-09-12T18:41:06;10.90;;;6.90;;
25481;SDS011;13395;50.752;4.268;2023-09-12T18:43:33;8.98;;;6.85;;
25481;SDS011;13395;50.752;4.268;2023-09-12T18:45:58;10.75;;;7.03;;
25481;SDS011;13395;50.752;4.268;2023-09-12T18:48:24;12.20;;;6.03;;
25481;SDS011;13395;50.752;4.268;2023-09-12T18:50:50;8.93;;;6.57;;
25481;SDS011;13395;50.752;4.268;2023-09-12T18:53:18;7.85;;;5.70;;
25481;SDS011;13395;50.752;4.268;2023-09-12T18:55:45;10.23;;;6.03;;
25481;SDS011;13395;50.752;4.268;2023-09-12T18:58:14;8.38;;;5.32;;
25481;SDS011;13395;50.752;4.268;2023-09-12T19:00:40;10.68;;;5.65;;
25481;SDS011;13395;50.752;4.268;2023-09-12T19:03:13;6.68;;;5.82;;
25481;SDS011;13395;50.752;4.268;2023-09-12T19:05:39;7.65;;;5.15;;
25481;SDS011;13395;50.752;4.268;2023-09-12T19:08:05;9.13;;;5.15;;
25481;SDS011;13395;50.752;4.268;2023-09-12T19:10:31;9.20;;;5.60;;
25481;SDS011;13395;50.752;4.268;2023-09-12T19:12:57;11.55;;;5.50;;
25481;SDS011;13395;50.752;4.268;2023-09-12T19:15:23;7.93;;;5.20;;
25481;SDS011;13395;50.752;4.268;2023-09-12T19:17:48;5.55;;;4.85;;
25481;SDS011;13395;50.752;4.268;2023-09-12T19:20:14;7.50;;;5.25;;
25481;SDS011;13395;50.752;4.268;2023-09-12T19:22:41;10.32;;;5.65;;
25481;SDS011;13395;50.752;4.268;2023-09-12T19:25:06;7.88;;;4.85;;
25481;SDS011;13395;50.752;4.268;2023-09-12T19:27:33;7.22;;;5.75;;
25481;SDS011;13395;50.752;4.268;2023-09-12T19:30:00;6.57;;;4.95;;
25481;SDS011;13395;50.752;4.268;2023-09-12T19:32:26;7.72;;;4.75;;
25481;SDS011;13395;50.752;4.268;2023-09-12T19:34:53;7.82;;;4.68;;
25481;SDS011;13395;50.752;4.268;2023-09-12T19:37:18;10.52;;;5.68;;
25481;SDS011;13395;50.752;4.268;2023-09-12T19:39:44;7.13;;;5.10;;
25481;SDS011;13395;50.752;4.268;2023-09-12T19:42:10;8.93;;;5.00;;
25481;SDS011;13395;50.752;4.268;2023-09-12T19:44:35;6.15;;;5.20;;
25481;SDS011;13395;50.752;4.268;2023-09-12T19:47:01;10.85;;;5.68;;
25481;SDS011;13395;50.752;4.268;2023-09-12T19:49:27;11.40;;;5.95;;
25481;SDS011;13395;50.752;4.268;2023-09-12T19:51:52;7.18;;;4.85;;
25481;SDS011;13395;50.752;4.268;2023-09-12T19:54:18;6.78;;;5.43;;
25481;SDS011;13395;50.752;4.268;2023-09-12T19:56:44;12.90;;;5.95;;
25481;SDS011;13395;50.752;4.268;2023-09-12T19:59:10;7.78;;;5.60;;
25481;SDS011;13395;50.752;4.268;2023-09-12T20:01:35;8.48;;;5.53;;
25481;SDS011;13395;50.752;4.268;2023-09-12T20:04:01;10.13;;;6.00;;
25481;SDS011;13395;50.752;4.268;2023-09-12T20:06:27;7.32;;;6.07;;
25481;SDS011;13395;50.752;4.268;2023-09-12T20:08:53;11.15;;;6.38;;
25481;SDS011;13395;50.752;4.268;2023-09-12T20:11:18;10.00;;;7.45;;
25481;SDS011;13395;50.752;4.268;2023-09-12T20:13:45;10.70;;;7.88;;
25481;SDS011;13395;50.752;4.268;2023-09-12T20:16:17;16.50;;;9.38;;
25481;SDS011;13395;50.752;4.268;2023-09-12T20:18:43;11.82;;;9.32;;
25481;SDS011;13395;50.752;4.268;2023-09-12T20:21:09;10.63;;;8.43;;
25481;SDS011;13395;50.752;4.268;2023-09-12T20:23:35;14.77;;;8.55;;